Ana Sayfa
METAR-TAF:

METAR-TAF

Havaalanları :

Delta County Airport

Escanaba, Michigan, Amerika Birleşik Devletleri

Enlem: 45-45N, Boylam: 087-02W, yükseklik: 180 m

Güncel hava durumu gözlemi

Rapor saat 22:36 UTC de 23 dakika önce yapıldı.
Rüzgar kuzeydan 6 kt
Sıcaklık -3°C
Nem 93%
Basınç 996 hPa
Görüş mesafesi: 2.0 km
1000 ft yükseklikte çok bulutlu
hafif kar, Pus

METAR: KESC 092236Z AUTO 35006KT 1 1/4SM -SN BR OVC010 M03/M04 A2942 RMK AO2 CIG 006V013 P0000 FZRANO

Saat: 17:59 (22:59 UTC)


TAF: eksik

4.000'den fazla havaalanı için hava durumu gözlemleri ve tahminleri (METAR ve TAF raporları).

Kullanılabilir istasyonlar harita üzerinde sarı ve kırmızı noktalarla gösterilir.

İstasyonun adını görmek için fareyi noktanın üzerinde gezdirin.

Sonrasında hava gözlem ve tahminlerini görmek için tıklayın.

Haritayı değiştirmek için: yaklaştırmak için siyah artı işaretli yeşil düğmeye ve uzaklaştırmak için de eksi işaretli düğmeye hızla tıklayın; bitişik haritalar için yeşil okları kullanın.


METAR-TAF: